セントジョンズ の空港の天気 - METARとTAF

セント・ジョンズ国際空港 ( CYYT / YYT ) - カナダ ニューファンドランド・ラブラドール州セントジョンズ
飛行場実況気象(Metar)
観測時間10/20 01:30 NDT (10/20 04:00 UTC)
風向・風速西 9m/s
視程10km以上
天気現象弱い霧雨
全天を覆う雲 雲底高度 300m
気温8℃
湿度93%
気圧1000.6hPa
METARCYYT 200400Z 27017KT 15SM -DZ OVC010 08/07 A2954 RMK SF8 SLP006
過去の天気等 Google飛行場航空写真 Wunderground天気予報

過去48時間のMETAR

飛行場予報(TAF)
発表時間: 10/20 00:07 NDT (10/20 02:37 UTC)
予報対象時間: 19日23時 NDT ~ 20日21時 NDT
風向・風速西 8m/s 瞬間風速 13m/s
視程10km以上
全天を覆う雲 雲底高度 240m
19日23時 NDT ~ 20日9時 NDT に一時的に
全天の4割程度の雲 雲底高度 240m
全天の8割程度の雲 雲底高度 1220m
20日9時 NDT から
風向・風速西 9m/s 瞬間風速 14m/s
視程10km以上
全天を覆う雲 雲底高度 460m
20日13時 NDT から
風向・風速西 9m/s 瞬間風速 14m/s
視程10km以上
天気現象弱いしゅう雨
全天を覆う雲 雲底高度 610m
TAF AMD CYYT 200237Z 2002/2024 26015G25KT P6SM OVC008
TEMPO 2002/2012 SCT008 BKN040
FM201200 27018G28KT P6SM OVC015
FM201600 27018G28KT P6SM -SHRA OVC020 RMK NXT FCST BY 200600Z